createdAt,value
2018-07-06T00:01:49.554Z,1.87
2018-07-06T00:04:29.266Z,2.17
2018-07-06T00:07:09.030Z,1.90
2018-07-06T00:09:48.719Z,2.23
2018-07-06T00:12:28.433Z,1.80
2018-07-06T00:15:08.206Z,1.97
2018-07-06T00:17:47.818Z,2.00
2018-07-06T00:20:27.466Z,2.00
2018-07-06T00:23:07.189Z,1.70
2018-07-06T00:25:46.767Z,1.80
2018-07-06T00:28:26.570Z,1.83
2018-07-06T00:31:06.208Z,1.70
2018-07-06T00:33:45.960Z,2.00
2018-07-06T00:36:25.577Z,2.00
2018-07-06T00:39:05.589Z,1.67
2018-07-06T00:41:45.366Z,1.63
2018-07-06T00:44:25.105Z,1.70
2018-07-06T00:47:04.685Z,1.70
2018-07-06T00:49:44.340Z,1.70
2018-07-06T00:52:24.111Z,1.80
2018-07-06T00:55:03.856Z,1.70
2018-07-06T00:57:48.846Z,1.80
2018-07-06T01:00:28.612Z,1.83
2018-07-06T01:03:08.197Z,1.60
2018-07-06T01:05:48.072Z,2.13
2018-07-06T01:08:28.457Z,2.00
2018-07-06T01:11:08.272Z,1.97
2018-07-06T01:13:48.340Z,1.87
2018-07-06T01:16:28.060Z,1.77
2018-07-06T01:19:07.840Z,2.00
2018-07-06T01:21:47.404Z,1.90
2018-07-06T01:24:26.951Z,1.70
2018-07-06T01:27:06.581Z,2.07
2018-07-06T01:29:46.354Z,1.70
2018-07-06T01:32:25.982Z,1.80
2018-07-06T01:35:05.490Z,2.30
2018-07-06T01:37:45.145Z,1.80
2018-07-06T01:40:24.889Z,1.70
2018-07-06T01:43:04.652Z,2.07
2018-07-06T01:45:44.184Z,1.70
2018-07-06T01:48:23.761Z,1.70
2018-07-06T01:51:03.408Z,1.83
2018-07-06T01:53:43.109Z,1.80
2018-07-06T01:56:22.687Z,1.87
2018-07-06T01:59:02.489Z,1.73
2018-07-06T02:01:42.112Z,1.80
2018-07-06T02:04:21.789Z,1.60
2018-07-06T02:07:01.398Z,1.93
2018-07-06T02:09:41.094Z,1.60
2018-07-06T02:12:20.643Z,1.60
2018-07-06T02:15:00.152Z,1.70
2018-07-06T02:17:39.812Z,1.43
2018-07-06T02:20:13.558Z,1.60
2018-07-06T02:22:53.137Z,1.87
2018-07-06T02:25:32.689Z,1.90
2018-07-06T02:28:12.319Z,1.53
2018-07-06T02:30:51.925Z,1.80
2018-07-06T02:33:31.601Z,1.63
2018-07-06T02:36:11.213Z,1.80
2018-07-06T02:38:50.780Z,1.67
2018-07-06T02:41:30.533Z,1.47
2018-07-06T02:44:10.140Z,1.70
2018-07-06T02:46:49.668Z,1.83
2018-07-06T02:49:29.290Z,1.47
2018-07-06T02:52:08.928Z,1.87
2018-07-06T02:54:48.598Z,1.60
2018-07-06T02:57:28.253Z,1.80
2018-07-06T03:00:07.988Z,1.83
2018-07-06T03:02:47.774Z,1.70
2018-07-06T03:05:27.513Z,2.00
2018-07-06T03:08:07.114Z,1.80
2018-07-06T03:10:46.641Z,1.90
2018-07-06T03:13:26.349Z,1.50
2018-07-06T03:16:06.058Z,1.80
2018-07-06T03:18:45.560Z,1.80
2018-07-06T03:21:25.068Z,1.70
2018-07-06T03:24:04.688Z,1.70
2018-07-06T03:26:44.376Z,2.10
2018-07-06T03:29:24.009Z,1.50
2018-07-06T03:32:03.545Z,1.70
2018-07-06T03:34:43.123Z,1.70
2018-07-06T03:37:22.954Z,1.63
2018-07-06T03:40:02.714Z,1.80
2018-07-06T03:42:42.162Z,1.60
2018-07-06T03:45:21.705Z,2.17
2018-07-06T03:48:01.322Z,2.00
2018-07-06T03:50:40.830Z,1.67
2018-07-06T03:53:20.497Z,1.70
2018-07-06T03:55:59.999Z,1.90
2018-07-06T03:58:39.592Z,1.70
2018-07-06T04:01:19.159Z,1.60
2018-07-06T04:03:58.800Z,1.93
2018-07-06T04:06:38.326Z,1.63
2018-07-06T04:09:18.039Z,1.97
2018-07-06T04:11:57.721Z,2.00
2018-07-06T04:14:37.221Z,1.70
2018-07-06T04:17:16.732Z,1.63
2018-07-06T04:19:56.322Z,1.80
2018-07-06T04:22:35.901Z,1.73
2018-07-06T04:25:15.663Z,1.60
2018-07-06T04:27:55.269Z,1.80
2018-07-06T04:30:34.898Z,1.67
2018-07-06T04:33:14.513Z,2.20
2018-07-06T04:35:54.213Z,1.80
2018-07-06T04:38:33.826Z,1.70
2018-07-06T04:41:13.499Z,1.53
2018-07-06T04:43:53.942Z,1.50
2018-07-06T04:46:33.506Z,1.60
2018-07-06T04:49:13.117Z,1.60
2018-07-06T04:51:52.901Z,1.77
2018-07-06T04:54:32.544Z,1.70
2018-07-06T04:57:12.281Z,1.90
2018-07-06T04:59:52.072Z,2.03
2018-07-06T05:02:31.764Z,1.60
2018-07-06T05:05:11.461Z,1.67
2018-07-06T05:07:51.000Z,1.73
2018-07-06T05:10:30.631Z,1.70
2018-07-06T05:13:10.309Z,1.57
2018-07-06T05:15:49.970Z,1.80
2018-07-06T05:18:29.558Z,1.80
2018-07-06T05:21:09.273Z,1.63
2018-07-06T05:23:49.009Z,1.70
2018-07-06T05:26:22.690Z,1.50
2018-07-06T05:29:02.437Z,1.83
2018-07-06T05:31:41.978Z,1.60
2018-07-06T05:34:21.672Z,1.87
2018-07-06T05:37:01.194Z,1.80
2018-07-06T05:39:40.822Z,1.57
2018-07-06T05:42:20.401Z,1.83
2018-07-06T05:45:00.048Z,1.83
2018-07-06T05:47:39.747Z,1.67
2018-07-06T05:50:19.293Z,1.70
2018-07-06T05:52:59.016Z,1.90
2018-07-06T05:55:38.660Z,1.60
2018-07-06T05:58:12.327Z,1.80
2018-07-06T06:00:51.988Z,1.60
2018-07-06T06:03:32.229Z,1.80
2018-07-06T06:06:12.069Z,1.67
2018-07-06T06:08:39.295Z,1.90
2018-07-06T06:11:07.540Z,1.90
2018-07-06T06:13:35.799Z,1.77
2018-07-06T06:16:04.116Z,2.00
2018-07-06T06:18:32.354Z,6.60
2018-07-06T06:21:00.601Z,2.07
2018-07-06T06:23:28.821Z,1.87
2018-07-06T06:25:57.121Z,2.00
2018-07-06T06:28:25.363Z,1.80
2018-07-06T06:30:53.648Z,2.10
2018-07-06T06:33:22.013Z,1.90
2018-07-06T06:35:50.203Z,2.20
2018-07-06T06:38:18.629Z,2.23
2018-07-06T06:40:46.932Z,1.80
2018-07-06T06:43:15.250Z,2.10
2018-07-06T06:45:43.508Z,2.03
2018-07-06T06:48:11.769Z,8.80
2018-07-06T06:50:40.081Z,2.27
2018-07-06T06:53:08.487Z,2.33
2018-07-06T06:55:36.672Z,5.17
2018-07-06T06:58:04.926Z,10.50
2018-07-06T07:00:33.173Z,7.67
2018-07-06T07:03:01.441Z,2.60
2018-07-06T07:05:29.713Z,9.63
2018-07-06T07:08:04.609Z,4.30
2018-07-06T07:10:32.872Z,9.17
2018-07-06T07:13:01.113Z,10.33
2018-07-06T07:15:29.384Z,7.53
2018-07-06T07:17:57.614Z,7.10
2018-07-06T07:20:25.853Z,7.07
2018-07-06T07:22:54.516Z,7.07
2018-07-06T07:25:22.780Z,6.63
2018-07-06T07:27:51.035Z,9.97
2018-07-06T07:30:19.265Z,6.50
2018-07-06T07:32:47.602Z,11.07
2018-07-06T07:35:15.847Z,6.00
2018-07-06T07:37:44.237Z,10.20
2018-07-06T07:40:12.602Z,6.63
2018-07-06T07:42:40.853Z,5.83
2018-07-06T07:45:09.095Z,5.77
2018-07-06T07:47:38.509Z,12.13
2018-07-06T07:50:07.198Z,5.13
2018-07-06T07:53:47.416Z,5.53
2018-07-06T07:56:15.661Z,5.60
2018-07-06T07:58:43.943Z,6.17
2018-07-06T08:01:12.298Z,7.90
2018-07-06T08:03:40.945Z,4.93
2018-07-06T08:06:09.201Z,5.53
2018-07-06T08:08:37.449Z,9.50
2018-07-06T08:11:05.784Z,5.00
2018-07-06T08:13:34.076Z,5.70
2018-07-06T08:16:02.285Z,7.83
2018-07-06T08:18:30.614Z,5.63
2018-07-06T08:20:58.897Z,13.40
2018-07-06T08:23:27.146Z,13.20
2018-07-06T08:25:55.453Z,4.73
2018-07-06T08:28:23.685Z,6.90
2018-07-06T08:30:51.905Z,7.63
2018-07-06T08:33:20.996Z,11.10
2018-07-06T08:36:00.752Z,8.17
2018-07-06T08:38:28.976Z,8.23
2018-07-06T08:40:57.227Z,14.67
2018-07-06T08:43:25.474Z,16.90
2018-07-06T08:45:53.750Z,7.10
2018-07-06T08:48:21.964Z,5.33
2018-07-06T08:50:50.266Z,13.53
2018-07-06T08:53:18.508Z,5.80
2018-07-06T08:55:46.791Z,10.43
2018-07-06T08:58:15.015Z,12.37
2018-07-06T09:00:43.378Z,5.47
2018-07-06T09:03:11.616Z,21.50
2018-07-06T09:05:39.879Z,22.43
2018-07-06T09:08:08.110Z,9.90
2018-07-06T09:10:36.389Z,7.87
2018-07-06T09:13:04.661Z,6.63
2018-07-06T09:15:32.847Z,7.30
2018-07-06T09:18:01.137Z,10.63
2018-07-06T09:20:29.385Z,20.40
2018-07-06T09:22:57.676Z,7.53
2018-07-06T09:25:26.039Z,7.33
2018-07-06T09:27:54.205Z,7.33
2018-07-06T09:30:22.557Z,23.37
2018-07-06T09:32:50.789Z,24.47
2018-07-06T09:35:19.048Z,6.87
2018-07-06T09:37:47.312Z,6.97
2018-07-06T09:40:15.568Z,17.13
2018-07-06T09:42:43.805Z,7.07
2018-07-06T09:45:12.090Z,8.00
2018-07-06T09:47:40.338Z,11.47
2018-07-06T09:50:08.536Z,7.23
2018-07-06T09:52:36.777Z,8.33
2018-07-06T09:55:05.231Z,6.67
2018-07-06T09:57:34.120Z,10.77
2018-07-06T10:00:02.381Z,12.03
2018-07-06T10:02:30.714Z,8.37
2018-07-06T10:04:58.963Z,15.60
2018-07-06T10:07:27.194Z,14.00
2018-07-06T10:09:55.213Z,12.83
2018-07-06T10:12:23.453Z,11.77
2018-07-06T10:14:51.700Z,7.90
2018-07-06T10:17:19.977Z,17.40
2018-07-06T10:19:48.294Z,7.00
2018-07-06T10:22:16.494Z,14.93
2018-07-06T10:24:44.736Z,12.37
2018-07-06T10:27:13.046Z,7.30
2018-07-06T10:30:02.293Z,7.10
2018-07-06T10:32:30.782Z,7.90
2018-07-06T10:34:59.407Z,10.13
2018-07-06T10:37:29.197Z,7.53
2018-07-06T10:39:57.526Z,10.37
2018-07-06T10:42:25.714Z,15.07
2018-07-06T10:44:54.106Z,13.50
2018-07-06T10:47:22.388Z,9.93
2018-07-06T10:49:50.644Z,6.93
2018-07-06T10:52:18.900Z,13.20
2018-07-06T10:54:47.556Z,11.47
2018-07-06T10:57:15.943Z,10.77
2018-07-06T10:59:44.200Z,13.60
2018-07-06T11:02:12.515Z,13.73
2018-07-06T11:04:40.813Z,11.10
2018-07-06T11:07:09.075Z,11.87
2018-07-06T11:09:37.321Z,7.57
2018-07-06T11:12:05.624Z,12.77
2018-07-06T11:14:33.911Z,14.77
2018-07-06T11:17:02.113Z,13.23
2018-07-06T11:19:30.392Z,8.37
2018-07-06T11:21:58.627Z,7.33
2018-07-06T11:24:26.869Z,9.50
2018-07-06T11:26:55.085Z,7.93
2018-07-06T11:29:23.349Z,7.43
2018-07-06T11:31:51.589Z,9.50
2018-07-06T11:34:19.889Z,13.50
2018-07-06T11:36:48.129Z,8.30
2018-07-06T11:39:16.381Z,10.07
2018-07-06T11:41:44.589Z,8.90
2018-07-06T11:44:12.829Z,9.20
2018-07-06T11:46:41.057Z,9.13
2018-07-06T11:49:09.016Z,9.00
2018-07-06T11:51:37.277Z,6.90
2018-07-06T11:54:05.522Z,7.77
2018-07-06T11:56:33.783Z,10.77
2018-07-06T11:59:02.065Z,11.90
2018-07-06T12:01:30.297Z,6.87
2018-07-06T12:03:58.597Z,11.00
2018-07-06T12:06:26.831Z,10.97
2018-07-06T12:08:55.063Z,8.30
2018-07-06T12:11:23.290Z,8.20
2018-07-06T12:13:51.548Z,9.27
2018-07-06T12:16:19.806Z,8.77
2018-07-06T12:18:48.040Z,7.50
2018-07-06T12:21:16.368Z,7.10
2018-07-06T12:23:44.727Z,6.23
2018-07-06T12:26:12.949Z,5.67
2018-07-06T12:28:41.185Z,7.87
2018-07-06T12:31:09.460Z,7.97
2018-07-06T12:33:37.693Z,7.40
2018-07-06T12:36:06.010Z,6.83
2018-07-06T12:38:34.268Z,7.20
2018-07-06T12:41:02.544Z,7.23
2018-07-06T12:43:30.797Z,6.80
2018-07-06T12:45:59.084Z,6.63
2018-07-06T12:48:27.349Z,5.77
2018-07-06T12:50:55.624Z,6.07
2018-07-06T12:53:23.874Z,5.60
2018-07-06T12:55:52.125Z,5.63
2018-07-06T12:58:20.425Z,5.63
2018-07-06T13:00:48.623Z,5.53
2018-07-06T13:03:16.833Z,4.93
2018-07-06T13:05:45.293Z,4.63
2018-07-06T13:08:13.682Z,4.70
2018-07-06T13:10:41.958Z,4.70
2018-07-06T13:13:10.197Z,3.90
2018-07-06T13:15:38.430Z,4.70
2018-07-06T13:18:06.672Z,5.13
2018-07-06T13:20:34.951Z,4.13
2018-07-06T13:23:02.948Z,4.70
2018-07-06T13:25:31.205Z,3.83
2018-07-06T13:27:59.520Z,3.70
2018-07-06T13:30:27.855Z,3.20
2018-07-06T13:32:56.140Z,3.87
2018-07-06T13:35:24.380Z,5.40
2018-07-06T13:37:52.611Z,2.90
2018-07-06T13:40:20.843Z,4.43
2018-07-06T13:42:49.045Z,4.47
2018-07-06T13:45:17.296Z,4.40
2018-07-06T13:47:45.569Z,4.60
2018-07-06T13:50:13.808Z,3.57
2018-07-06T13:52:42.059Z,3.90
2018-07-06T13:55:10.309Z,4.00
2018-07-06T13:57:38.549Z,4.23
2018-07-06T14:00:06.814Z,3.50
2018-07-06T14:02:35.022Z,3.27
2018-07-06T14:05:03.301Z,3.20
2018-07-06T14:07:31.529Z,3.30
2018-07-06T14:09:59.769Z,3.37
2018-07-06T14:12:28.017Z,2.73
2018-07-06T14:14:56.285Z,4.00
2018-07-06T14:17:24.556Z,3.67
2018-07-06T14:19:52.777Z,3.60
2018-07-06T14:22:21.040Z,4.13
2018-07-06T14:24:49.297Z,4.20
2018-07-06T14:27:17.594Z,4.00
2018-07-06T14:29:45.873Z,3.63
2018-07-06T14:32:14.287Z,4.03
2018-07-06T14:34:42.535Z,2.93
2018-07-06T14:37:10.969Z,3.57
2018-07-06T14:39:39.357Z,3.40
2018-07-06T14:42:07.696Z,3.37
2018-07-06T14:44:36.029Z,3.83
2018-07-06T14:47:04.285Z,4.20
2018-07-06T14:49:32.277Z,3.73
2018-07-06T14:52:00.508Z,3.90
2018-07-06T14:54:28.760Z,3.43
2018-07-06T14:56:57.069Z,3.60
2018-07-06T14:59:25.383Z,3.57
2018-07-06T15:01:53.664Z,3.80
2018-07-06T15:04:21.703Z,3.40
2018-07-06T15:06:50.113Z,3.10
2018-07-06T15:09:18.239Z,3.67
2018-07-06T15:11:46.520Z,3.67
2018-07-06T15:14:14.497Z,3.30
2018-07-06T15:16:42.768Z,3.70
2018-07-06T15:19:11.062Z,3.70
2018-07-06T15:21:39.370Z,3.60
2018-07-06T15:24:07.608Z,3.40
2018-07-06T15:26:35.911Z,3.80
2018-07-06T15:29:04.146Z,3.30
2018-07-06T15:31:32.417Z,3.40
2018-07-06T15:34:00.805Z,3.23
2018-07-06T15:36:29.030Z,3.67
2018-07-06T15:38:57.296Z,3.23
2018-07-06T15:41:25.557Z,3.40
2018-07-06T15:43:53.900Z,2.97
2018-07-06T15:46:22.114Z,3.00
2018-07-06T15:48:50.092Z,3.13
2018-07-06T15:51:18.328Z,3.13
2018-07-06T15:53:46.607Z,3.63
2018-07-06T15:56:14.829Z,3.03
2018-07-06T15:58:43.077Z,3.50
2018-07-06T16:01:11.288Z,3.00
2018-07-06T16:03:39.542Z,2.90
2018-07-06T16:06:07.949Z,3.47
2018-07-06T16:08:36.195Z,2.60
2018-07-06T16:11:04.635Z,2.90
2018-07-06T16:13:32.919Z,3.47
2018-07-06T16:16:01.149Z,2.67
2018-07-06T16:18:29.364Z,3.70
2018-07-06T16:20:57.601Z,3.20
2018-07-06T16:23:25.887Z,2.90
2018-07-06T16:25:54.089Z,3.37
2018-07-06T16:28:22.407Z,3.37
2018-07-06T16:30:50.785Z,3.10
2018-07-06T16:33:19.274Z,3.00
2018-07-06T16:35:47.581Z,3.33
2018-07-06T16:38:15.939Z,3.50
2018-07-06T16:40:44.194Z,3.37
2018-07-06T16:43:12.705Z,3.30
2018-07-06T16:45:40.989Z,3.20
2018-07-06T16:48:09.249Z,3.43
2018-07-06T16:50:37.753Z,3.20
2018-07-06T16:53:06.511Z,3.80
2018-07-06T16:55:35.897Z,3.37
2018-07-06T16:58:04.241Z,3.10
2018-07-06T17:00:32.881Z,3.50
2018-07-06T17:03:01.157Z,3.30
2018-07-06T17:05:29.601Z,3.27
2018-07-06T17:07:58.170Z,3.47
2018-07-06T17:10:26.558Z,3.10
2018-07-06T17:12:54.801Z,3.00
2018-07-06T17:15:23.114Z,3.13
2018-07-06T17:17:51.549Z,3.63
2018-07-06T17:20:19.964Z,3.90
2018-07-06T17:22:49.285Z,4.03
2018-07-06T17:25:18.007Z,4.20
2018-07-06T17:27:46.477Z,4.23
2018-07-06T17:30:14.726Z,4.03
2018-07-06T17:32:42.995Z,4.93
2018-07-06T17:35:11.383Z,3.97
2018-07-06T17:37:39.886Z,4.50
2018-07-06T17:40:08.336Z,4.53
2018-07-06T17:42:36.614Z,4.80
2018-07-06T17:45:05.025Z,4.37
2018-07-06T17:47:33.277Z,4.73
2018-07-06T17:50:01.520Z,4.40
2018-07-06T17:52:29.878Z,3.53
2018-07-06T17:54:58.085Z,3.60
2018-07-06T17:57:26.417Z,3.33
2018-07-06T17:59:54.764Z,3.47
2018-07-06T18:02:23.000Z,2.87
2018-07-06T18:04:51.321Z,3.57
2018-07-06T18:07:19.622Z,3.40
2018-07-06T18:09:47.900Z,3.30
2018-07-06T18:12:16.282Z,3.73
2018-07-06T18:14:44.576Z,2.93
2018-07-06T18:17:13.562Z,3.30
2018-07-06T18:19:41.805Z,3.10
2018-07-06T18:22:10.101Z,3.40
2018-07-06T18:24:38.590Z,3.63
2018-07-06T18:27:06.850Z,3.33
2018-07-06T18:29:35.156Z,3.40
2018-07-06T18:32:03.428Z,3.60
2018-07-06T18:34:31.673Z,3.17
2018-07-06T18:37:00.037Z,2.80
2018-07-06T18:39:28.288Z,3.10
2018-07-06T18:41:56.518Z,3.50
2018-07-06T18:44:24.770Z,3.20
2018-07-06T18:46:53.166Z,3.10
2018-07-06T18:49:21.473Z,3.17
2018-07-06T18:51:49.729Z,3.27
2018-07-06T18:54:18.197Z,3.00
2018-07-06T18:56:46.437Z,3.37
2018-07-06T18:59:14.711Z,3.23
2018-07-06T19:01:42.969Z,4.97
2018-07-06T19:04:11.238Z,4.80
2018-07-06T19:06:39.585Z,3.10
2018-07-06T19:09:07.872Z,2.80
2018-07-06T19:11:36.119Z,3.13
2018-07-06T19:14:04.484Z,3.47
2018-07-06T19:16:32.749Z,3.27
2018-07-06T19:19:01.311Z,3.27
2018-07-06T19:21:29.590Z,3.37
2018-07-06T19:23:57.862Z,3.00
2018-07-06T19:26:26.337Z,3.37
2018-07-06T19:28:54.597Z,3.10
2018-07-06T19:31:23.356Z,3.00
2018-07-06T19:33:51.965Z,2.97
2018-07-06T19:36:20.339Z,3.10
2018-07-06T19:38:49.165Z,3.33
2018-07-06T19:41:17.421Z,2.97
2018-07-06T19:43:45.727Z,2.90
2018-07-06T19:46:13.964Z,3.03
2018-07-06T19:48:42.254Z,3.00
2018-07-06T19:51:10.497Z,3.03
2018-07-06T19:53:38.849Z,3.10
2018-07-06T19:56:07.131Z,2.83
2018-07-06T19:58:35.429Z,3.00
2018-07-06T20:01:03.652Z,3.40
2018-07-06T20:03:31.985Z,2.90
2018-07-06T20:06:00.313Z,3.40
2018-07-06T20:08:28.532Z,3.37
2018-07-06T20:10:56.836Z,3.03
2018-07-06T20:13:25.190Z,3.20
2018-07-06T20:15:53.552Z,2.80
2018-07-06T20:18:21.781Z,3.23
2018-07-06T20:20:50.061Z,3.13
2018-07-06T20:23:18.310Z,3.10
2018-07-06T20:25:46.850Z,3.00
2018-07-06T20:28:15.082Z,2.80
2018-07-06T20:30:43.491Z,3.10
2018-07-06T20:33:11.821Z,3.13
2018-07-06T20:35:40.092Z,2.80
2018-07-06T20:38:08.446Z,2.80
2018-07-06T20:40:36.725Z,2.90
2018-07-06T20:43:05.035Z,2.63
2018-07-06T20:45:33.283Z,3.03
2018-07-06T20:48:01.547Z,3.00
2018-07-06T20:50:29.793Z,2.70
2018-07-06T20:52:58.049Z,2.93
2018-07-06T20:55:26.316Z,3.00
2018-07-06T20:57:54.561Z,2.60
2018-07-06T21:00:22.821Z,2.97
2018-07-06T21:02:51.272Z,2.57
2018-07-06T21:05:19.593Z,2.93
2018-07-06T21:07:47.836Z,2.63
2018-07-06T21:10:16.069Z,2.83
2018-07-06T21:12:44.433Z,2.50
2018-07-06T21:15:12.701Z,2.80
2018-07-06T21:17:41.010Z,2.90
2018-07-06T21:20:09.268Z,3.33
2018-07-06T21:22:38.526Z,3.20
2018-07-06T21:25:06.763Z,3.00
2018-07-06T21:27:35.241Z,2.80
2018-07-06T21:30:03.504Z,2.60
2018-07-06T21:32:31.721Z,2.87
2018-07-06T21:35:00.039Z,2.90
2018-07-06T21:37:28.280Z,2.90
2018-07-06T21:39:56.543Z,3.10
2018-07-06T21:42:24.797Z,2.80
2018-07-06T21:44:53.321Z,3.10
2018-07-06T21:47:21.553Z,2.87
2018-07-06T21:49:49.812Z,2.60
2018-07-06T21:52:18.069Z,3.03
2018-07-06T21:54:46.302Z,2.53
2018-07-06T21:57:14.536Z,2.73
2018-07-06T21:59:42.856Z,2.73
2018-07-06T22:02:14.951Z,2.80
2018-07-06T22:04:44.417Z,2.77
2018-07-06T22:07:12.985Z,2.70
2018-07-06T22:09:41.261Z,2.87
2018-07-06T22:12:09.659Z,2.83
2018-07-06T22:14:38.132Z,2.73
2018-07-06T22:17:06.657Z,2.70
2018-07-06T22:19:34.900Z,2.87
2018-07-06T22:22:03.169Z,2.90
2018-07-06T22:24:31.388Z,2.97
2018-07-06T22:26:59.630Z,2.70
2018-07-06T22:29:28.266Z,2.87
2018-07-06T22:31:56.490Z,2.70
2018-07-06T22:34:24.885Z,2.87
2018-07-06T22:36:53.132Z,2.67
2018-07-06T22:39:21.367Z,2.90
2018-07-06T22:41:49.961Z,2.60
2018-07-06T22:44:18.237Z,3.00
2018-07-06T22:46:46.203Z,2.90
2018-07-06T22:49:14.463Z,3.10
2018-07-06T22:51:42.713Z,2.80
2018-07-06T22:54:10.953Z,3.00
2018-07-06T22:56:39.210Z,2.90
2018-07-06T22:59:07.476Z,2.50
2018-07-06T23:01:35.733Z,3.10
2018-07-06T23:04:03.989Z,3.00
2018-07-06T23:06:32.209Z,2.60
2018-07-06T23:09:00.453Z,3.00
2018-07-06T23:11:28.675Z,2.70
2018-07-06T23:13:56.939Z,2.80
2018-07-06T23:16:25.175Z,2.70
2018-07-06T23:18:53.445Z,3.00
2018-07-06T23:21:21.721Z,2.80
2018-07-06T23:23:49.909Z,2.63
2018-07-06T23:26:18.157Z,3.00
2018-07-06T23:28:46.413Z,2.63
2018-07-06T23:31:14.628Z,3.07
2018-07-06T23:33:42.861Z,2.70
2018-07-06T23:36:11.189Z,2.97
2018-07-06T23:38:39.430Z,3.20
2018-07-06T23:41:07.682Z,3.07
2018-07-06T23:43:35.925Z,3.00
2018-07-06T23:46:04.148Z,2.90
2018-07-06T23:48:32.392Z,2.80
2018-07-06T23:51:00.622Z,2.70
2018-07-06T23:53:28.863Z,3.20
2018-07-06T23:55:57.123Z,3.00
2018-07-06T23:58:25.366Z,2.73
